Time;durP1;ratioP1;P1;durP2;ratioP2;P2;SDS_P1;SDS_P2;PMS_P1;PMS_P2;Temp;Humidity;BMP_temperature;BMP_pressure;BME280_temperature;BME280_humidity;BME280_pressure;Samples;Min_cycle;Max_cycle;Signal;HPM_P1;HPM_P2
2022/11/25 00:01:13;;;;;;;0.20;0.20;;;;;;;4.53;91.72;95406.34;4389582;32;20348;-59
2022/11/25 00:04:00;;;;;;;0.20;0.20;;;;;;;4.47;91.54;95408.16;4353848;32;20255;-59
2022/11/25 00:06:29;;;;;;;0.43;0.43;;;;;;;4.55;91.22;95410.31;4369156;32;20300;-59
2022/11/25 00:09:09;;;;;;;0.80;0.53;;;;;;;4.54;90.78;95408.72;4371908;32;20304;-59
2022/11/25 00:11:54;;;;;;;0.30;0.30;;;;;;;4.68;89.73;95415.13;4380001;32;20311;-59
2022/11/25 00:14:24;;;;;;;0.10;0.10;;;;;;;4.54;90.23;95415.81;4349520;32;20324;-59
2022/11/25 00:16:49;;;;;;;0.00;0.00;;;;;;;4.46;89.98;95428.37;4363199;32;20289;-59
2022/11/25 00:19:15;;;;;;;0.60;0.60;;;;;;;4.44;90.55;95427.03;4364741;32;20324;-59
2022/11/25 00:21:42;;;;;;;0.43;0.43;;;;;;;4.48;91.07;95426.28;4362483;32;20176;-58
2022/11/25 00:24:28;;;;;;;0.77;0.10;;;;;;;4.66;90.42;95422.44;4308804;32;20337;-58
2022/11/25 00:26:55;;;;;;;1.70;0.40;;;;;;;4.56;90.40;95417.16;4368217;32;20367;-58
2022/11/25 00:29:22;;;;;;;0.20;0.20;;;;;;;4.41;90.42;95415.19;4355421;32;20289;-59
2022/11/25 00:31:50;;;;;;;2.43;0.53;;;;;;;4.26;91.01;95419.53;4382277;32;20324;-59
2022/11/25 00:34:16;;;;;;;0.30;0.30;;;;;;;4.31;91.42;95404.63;4368954;32;20299;-59
2022/11/25 00:36:44;;;;;;;0.37;0.37;;;;;;;4.27;90.83;95408.00;4362675;32;20284;-58
2022/11/25 00:39:17;;;;;;;0.37;0.37;;;;;;;4.31;90.57;95415.13;4316978;32;20327;-59
2022/11/25 00:44:35;;;;;;;0.00;0.00;;;;;;;4.39;90.49;95409.41;4363507;32;20315;-59
2022/11/25 00:47:12;;;;;;;0.47;0.17;;;;;;;4.49;90.32;95413.94;4380078;32;20312;-59
2022/11/25 00:49:41;;;;;;;0.20;0.20;;;;;;;4.52;90.30;95410.81;4346442;32;20294;-58
2022/11/25 00:52:12;;;;;;;0.10;0.10;;;;;;;4.46;90.21;95419.69;4375387;32;20280;-58
2022/11/25 00:54:39;;;;;;;0.50;0.50;;;;;;;4.38;90.73;95420.94;4358865;32;20304;-59
2022/11/25 00:57:04;;;;;;;0.43;0.43;;;;;;;4.34;90.86;95421.72;4363821;32;20383;-58
2022/11/25 00:59:32;;;;;;;0.20;0.13;;;;;;;4.45;89.90;95426.00;4349720;32;20291;-59
2022/11/25 01:02:01;;;;;;;0.20;0.20;;;;;;;4.54;89.13;95419.25;4331314;32;20320;-58
2022/11/25 01:04:28;;;;;;;0.20;0.20;;;;;;;4.71;88.57;95409.34;4340248;32;20359;-59
2022/11/25 01:06:56;;;;;;;0.30;0.30;;;;;;;4.68;88.83;95412.50;4342733;32;20389;-58
2022/11/25 01:09:26;;;;;;;0.40;0.40;;;;;;;4.51;89.39;95414.47;4330868;32;20282;-58
2022/11/25 01:11:53;;;;;;;0.40;0.40;;;;;;;4.65;88.60;95410.38;4362543;32;20276;-58
2022/11/25 01:14:23;;;;;;;0.33;0.33;;;;;;;4.56;88.73;95411.91;4371170;32;20278;-58
2022/11/25 01:16:50;;;;;;;0.20;0.20;;;;;;;4.68;88.75;95409.84;4365026;32;20347;-57
2022/11/25 01:19:20;;;;;;;0.00;0.00;;;;;;;4.46;88.95;95407.34;4364414;32;20288;-59
2022/11/25 01:21:46;;;;;;;2.60;0.63;;;;;;;4.49;88.61;95400.81;4364890;32;20273;-58
2022/11/25 01:24:13;;;;;;;0.10;0.10;;;;;;;4.24;89.22;95398.78;4381697;32;20272;-57
2022/11/25 01:26:42;;;;;;;0.00;0.00;;;;;;;4.38;89.37;95393.88;4361284;32;20192;-58
2022/11/25 01:29:14;;;;;;;0.10;0.10;;;;;;;4.38;89.29;95391.25;4367848;32;20308;-58
2022/11/25 01:31:41;;;;;;;0.77;0.37;;;;;;;4.42;88.84;95394.97;4368214;32;20272;-58
2022/11/25 01:34:12;;;;;;;0.93;0.50;;;;;;;4.27;89.09;95397.50;4348472;32;20289;-59
2022/11/25 01:36:37;;;;;;;0.10;0.10;;;;;;;4.34;89.37;95398.88;4377823;32;20342;-57
2022/11/25 01:39:05;;;;;;;0.10;0.10;;;;;;;4.38;88.81;95399.13;4392977;32;20304;-57
2022/11/25 01:41:34;;;;;;;0.20;0.20;;;;;;;4.35;89.13;95399.66;4335638;32;20208;-58
2022/11/25 01:44:26;;;;;;;0.17;0.17;;;;;;;4.14;89.45;95407.38;4364929;32;20412;-58
2022/11/25 01:47:16;;;;;;;0.17;0.17;;;;;;;4.20;89.70;95408.19;4374494;32;20285;-58
2022/11/25 01:50:03;;;;;;;0.10;0.10;;;;;;;4.21;89.26;95415.03;4347226;32;20281;-57
2022/11/25 01:52:50;;;;;;;0.27;0.27;;;;;;;4.50;88.40;95405.03;4343711;32;20281;-58
2022/11/25 01:55:35;;;;;;;0.00;0.00;;;;;;;4.45;88.31;95402.34;4379753;32;20275;-59
2022/11/25 01:58:12;;;;;;;0.23;0.23;;;;;;;4.36;88.93;95396.78;4357178;32;20321;-58
2022/11/25 02:00:39;;;;;;;0.00;0.00;;;;;;;4.20;89.60;95402.16;4352090;32;20275;-57
2022/11/25 02:03:07;;;;;;;2.40;0.57;;;;;;;4.36;88.34;95401.25;4328521;32;20285;-58
2022/11/25 02:06:05;;;;;;;0.00;0.00;;;;;;;4.22;88.60;95403.50;4377591;32;20310;-57
2022/11/25 02:08:32;;;;;;;0.10;0.10;;;;;;;4.03;89.55;95408.34;4378250;32;20294;-58
2022/11/25 02:11:03;;;;;;;0.33;0.33;;;;;;;4.14;89.63;95398.72;4378423;32;20280;-57
2022/11/25 02:13:31;;;;;;;0.33;0.33;;;;;;;4.08;89.65;95395.25;4376443;32;20302;-57
2022/11/25 02:15:58;;;;;;;0.97;0.83;;;;;;;3.97;89.86;95388.31;4338702;32;20293;-57
2022/11/25 02:18:35;;;;;;;0.50;0.30;;;;;;;3.80;90.35;95392.91;4366998;32;20310;-58
2022/11/25 02:21:02;;;;;;;0.60;0.50;;;;;;;3.84;90.31;95387.97;4366199;32;20284;-58
2022/11/25 02:23:35;;;;;;;0.10;0.10;;;;;;;3.76;90.72;95399.69;4362315;32;20280;-58
2022/11/25 02:26:04;;;;;;;0.10;0.10;;;;;;;3.76;90.96;95389.19;4350734;32;20296;-58
2022/11/25 02:28:33;;;;;;;0.47;0.47;;;;;;;3.54;91.65;95398.94;4375959;32;20342;-58
2022/11/25 02:30:59;;;;;;;0.70;0.33;;;;;;;3.86;91.47;95391.13;4367999;32;20355;-58
2022/11/25 02:33:28;;;;;;;0.00;0.00;;;;;;;3.92;90.82;95385.69;4378760;32;20318;-58
2022/11/25 02:36:00;;;;;;;1.70;0.47;;;;;;;4.08;90.04;95387.38;4328594;32;20263;-57
2022/11/25 02:38:46;;;;;;;0.10;0.10;;;;;;;4.17;89.17;95376.41;4368990;32;20287;-58
2022/11/25 02:41:29;;;;;;;0.20;0.20;;;;;;;3.99;89.63;95383.63;4337491;32;20284;-58
2022/11/25 02:43:56;;;;;;;0.47;0.30;;;;;;;4.11;89.63;95384.25;4354697;32;20314;-58
2022/11/25 02:46:25;;;;;;;0.17;0.17;;;;;;;3.94;90.28;95388.06;4362015;32;20372;-58
2022/11/25 02:48:57;;;;;;;0.30;0.30;;;;;;;3.82;90.66;95392.66;4372149;32;20269;-58
2022/11/25 02:51:34;;;;;;;0.20;0.20;;;;;;;3.94;90.37;95399.34;4361581;32;20338;-58
2022/11/25 02:54:00;;;;;;;0.00;0.00;;;;;;;4.24;89.56;95393.53;4369759;32;20294;-58
2022/11/25 02:56:34;;;;;;;0.20;0.20;;;;;;;4.06;89.43;95389.47;4354475;32;20338;-58
2022/11/25 02:59:11;;;;;;;0.20;0.20;;;;;;;3.99;89.66;95388.88;4344228;32;20292;-58
2022/11/25 03:01:39;;;;;;;0.00;0.00;;;;;;;3.98;89.41;95389.91;4370386;32;20284;-58
2022/11/25 03:04:06;;;;;;;0.57;0.57;;;;;;;3.71;90.70;95391.78;4347874;32;20273;-58
2022/11/25 03:06:34;;;;;;;0.13;0.13;;;;;;;3.90;90.60;95393.00;4324705;32;20297;-58
2022/11/25 03:09:01;;;;;;;0.10;0.10;;;;;;;4.05;90.45;95400.22;4348150;32;20292;-58
2022/11/25 03:14:12;;;;;;;0.10;0.10;;;;;;;4.10;89.68;95398.44;4331884;32;20292;-61
2022/11/25 03:16:40;;;;;;;0.80;0.37;;;;;;;4.33;88.75;95386.78;4301777;32;20281;-58
2022/11/25 03:19:07;;;;;;;0.10;0.10;;;;;;;3.98;89.86;95383.88;4338785;32;20310;-58
2022/11/25 03:21:35;;;;;;;0.33;0.33;;;;;;;4.07;89.96;95388.44;4328687;32;20481;-58
2022/11/25 03:24:02;;;;;;;0.10;0.10;;;;;;;4.12;89.45;95385.06;4367677;32;20337;-58
2022/11/25 03:26:30;;;;;;;0.10;0.10;;;;;;;3.97;89.68;95388.31;4356472;32;20277;-58
2022/11/25 03:28:57;;;;;;;0.00;0.00;;;;;;;4.12;89.87;95390.31;4358203;32;20284;-58
2022/11/25 03:31:23;;;;;;;0.20;0.20;;;;;;;4.13;89.45;95387.44;4355078;32;20281;-58
2022/11/25 03:33:49;;;;;;;0.37;0.37;;;;;;;4.29;89.06;95385.72;4323624;32;20328;-58
2022/11/25 03:36:15;;;;;;;0.00;0.00;;;;;;;4.28;88.83;95389.37;4351018;32;20189;-58
2022/11/25 03:38:41;;;;;;;0.30;0.27;;;;;;;3.95;89.25;95385.16;4357222;32;20307;-58
2022/11/25 03:41:09;;;;;;;0.20;0.20;;;;;;;3.64;91.52;95384.09;4362584;32;20267;-58
2022/11/25 03:43:39;;;;;;;0.43;0.40;;;;;;;3.64;91.70;95388.56;4364624;32;20319;-58
2022/11/25 03:46:05;;;;;;;0.10;0.10;;;;;;;3.67;91.80;95394.09;4354204;32;20415;-58
2022/11/25 03:48:32;;;;;;;0.20;0.20;;;;;;;3.84;91.04;95386.12;4368625;32;20322;-58
2022/11/25 03:50:58;;;;;;;0.00;0.00;;;;;;;4.11;90.08;95391.34;4377391;32;20295;-58
2022/11/25 03:53:25;;;;;;;0.20;0.20;;;;;;;4.32;88.93;95390.47;4360244;32;20336;-58
2022/11/25 03:55:52;;;;;;;0.30;0.30;;;;;;;4.22;89.41;95390.37;4352303;32;20284;-58
2022/11/25 03:58:18;;;;;;;0.10;0.10;;;;;;;4.42;88.47;95385.25;4374845;32;20277;-58
2022/11/25 04:00:44;;;;;;;0.10;0.10;;;;;;;4.33;88.34;95392.03;4380288;32;20361;-58
2022/11/25 04:03:10;;;;;;;0.10;0.10;;;;;;;4.17;89.07;95392.94;4371733;32;20285;-58
2022/11/25 04:05:36;;;;;;;0.10;0.10;;;;;;;4.21;89.20;95394.03;4365497;32;20215;-58
2022/11/25 04:08:02;;;;;;;0.13;0.13;;;;;;;4.24;88.95;95396.16;4350105;32;20296;-58
2022/11/25 04:10:29;;;;;;;0.10;0.10;;;;;;;4.29;88.84;95400.66;4377797;32;20197;-57
2022/11/25 04:13:01;;;;;;;0.00;0.00;;;;;;;4.25;88.94;95400.38;4373715;32;20324;-58
2022/11/25 04:15:27;;;;;;;0.00;0.00;;;;;;;4.39;88.47;95400.72;4371109;32;20276;-57
2022/11/25 04:17:53;;;;;;;0.23;0.23;;;;;;;4.51;87.96;95403.19;4359200;32;20341;-58
2022/11/25 04:20:20;;;;;;;0.30;0.20;;;;;;;4.63;87.37;95407.19;4358697;32;20196;-58
2022/11/25 04:22:45;;;;;;;0.20;0.20;;;;;;;4.45;87.92;95402.34;4378632;32;20303;-58
2022/11/25 04:25:12;;;;;;;0.53;0.53;;;;;;;4.50;87.63;95407.66;4350701;32;20278;-58
2022/11/25 04:27:37;;;;;;;0.10;0.10;;;;;;;4.55;87.96;95409.53;4360277;32;20180;-58
2022/11/25 04:30:05;;;;;;;0.50;0.50;;;;;;;4.60;87.37;95412.94;4377310;32;20402;-57
2022/11/25 04:32:30;;;;;;;0.03;0.03;;;;;;;4.47;88.33;95405.53;4351742;32;20197;-58
2022/11/25 04:34:57;;;;;;;0.10;0.10;;;;;;;4.40;88.39;95407.56;4381398;32;20268;-57
2022/11/25 04:37:25;;;;;;;0.10;0.10;;;;;;;4.39;89.07;95405.97;4366999;32;20198;-58
2022/11/25 04:39:52;;;;;;;0.00;0.00;;;;;;;4.36;88.56;95411.75;4360068;32;20288;-57
2022/11/25 04:42:37;;;;;;;0.33;0.33;;;;;;;4.48;88.19;95426.28;4365809;32;20284;-58
2022/11/25 04:45:25;;;;;;;0.10;0.10;;;;;;;4.58;87.54;95424.75;4368186;32;20395;-58
2022/11/25 04:47:52;;;;;;;0.40;0.40;;;;;;;4.59;87.81;95411.38;4347560;32;20320;-58
2022/11/25 04:50:23;;;;;;;0.10;0.10;;;;;;;4.57;88.63;95418.72;4375699;32;20348;-58
2022/11/25 04:52:49;;;;;;;0.03;0.03;;;;;;;4.51;88.25;95417.09;4340439;32;20303;-58
2022/11/25 04:55:19;;;;;;;0.27;0.27;;;;;;;4.31;88.69;95424.84;4347995;32;20332;-58
2022/11/25 04:57:44;;;;;;;0.10;0.10;;;;;;;4.39;88.97;95425.16;4371618;32;20355;-58
2022/11/25 05:00:10;;;;;;;0.00;0.00;;;;;;;4.44;88.53;95419.94;4351679;32;20344;-58
2022/11/25 05:02:39;;;;;;;0.10;0.10;;;;;;;4.58;87.95;95422.13;4365877;32;20197;-58
2022/11/25 05:05:09;;;;;;;0.40;0.23;;;;;;;4.47;88.22;95429.16;4376501;32;20304;-58
2022/11/25 05:07:37;;;;;;;0.53;0.47;;;;;;;4.33;89.23;95422.75;4359601;32;20326;-58
2022/11/25 05:10:06;;;;;;;0.00;0.00;;;;;;;4.42;88.84;95423.84;4381528;32;20450;-58
2022/11/25 05:12:33;;;;;;;0.50;0.50;;;;;;;4.48;88.61;95417.59;4377074;32;20288;-58
2022/11/25 05:14:58;;;;;;;0.40;0.40;;;;;;;4.40;88.83;95412.81;4385384;32;20289;-58
2022/11/25 05:17:32;;;;;;;0.23;0.23;;;;;;;4.44;89.14;95408.66;4367251;32;20338;-58
2022/11/25 05:19:57;;;;;;;0.00;0.00;;;;;;;4.21;89.23;95420.28;4373762;32;20261;-57
2022/11/25 05:22:36;;;;;;;0.00;0.00;;;;;;;4.41;88.58;95419.66;4376325;32;20284;-57
2022/11/25 05:25:07;;;;;;;0.27;0.27;;;;;;;4.28;88.90;95420.09;4360028;32;20198;-58
2022/11/25 05:27:34;;;;;;;0.37;0.37;;;;;;;4.36;88.59;95428.31;4361377;32;20321;-58
2022/11/25 05:30:06;;;;;;;0.10;0.10;;;;;;;4.42;88.19;95418.59;4367906;32;20355;-58
2022/11/25 05:32:33;;;;;;;0.40;0.40;;;;;;;4.43;88.09;95422.81;4366897;32;20304;-58
2022/11/25 05:35:01;;;;;;;0.10;0.10;;;;;;;4.40;88.46;95413.59;4380484;32;20292;-58
2022/11/25 05:37:26;;;;;;;0.20;0.20;;;;;;;4.61;88.04;95429.50;4385782;32;20288;-58
2022/11/25 05:39:52;;;;;;;0.10;0.10;;;;;;;4.47;87.93;95431.78;4349615;32;20296;-58
2022/11/25 05:42:18;;;;;;;0.10;0.10;;;;;;;4.51;87.74;95421.56;4342392;32;20197;-58
2022/11/25 05:44:44;;;;;;;0.00;0.00;;;;;;;4.40;88.43;95424.09;4349923;32;20294;-58
2022/11/25 05:47:11;;;;;;;0.10;0.10;;;;;;;4.13;88.68;95436.50;4354850;32;20296;-58
2022/11/25 05:49:38;;;;;;;0.00;0.00;;;;;;;4.16;89.47;95429.97;4357877;32;20212;-58
2022/11/25 05:52:05;;;;;;;0.10;0.10;;;;;;;4.34;89.08;95419.87;4358987;32;20346;-58
2022/11/25 05:54:30;;;;;;;0.20;0.20;;;;;;;4.26;88.77;95422.16;4362950;32;20285;-57
2022/11/25 05:56:58;;;;;;;2.60;0.40;;;;;;;4.13;89.27;95424.19;4371610;32;20328;-58
2022/11/25 05:59:24;;;;;;;0.00;0.00;;;;;;;4.21;89.51;95427.37;4396767;32;20226;-57
2022/11/25 06:02:01;;;;;;;0.20;0.20;;;;;;;4.48;88.55;95433.38;4330855;32;20282;-58
2022/11/25 06:04:27;;;;;;;0.33;0.20;;;;;;;4.11;89.22;95455.12;4369876;32;20276;-58
2022/11/25 06:06:53;;;;;;;0.00;0.00;;;;;;;4.23;89.32;95451.53;4371361;32;20305;-57
2022/11/25 06:09:20;;;;;;;0.30;0.30;;;;;;;4.40;88.83;95446.94;4379148;32;20284;-58
2022/11/25 06:11:50;;;;;;;0.10;0.10;;;;;;;4.59;87.44;95442.09;4378847;32;20201;-59
2022/11/25 06:14:18;;;;;;;0.00;0.00;;;;;;;4.75;86.64;95441.97;4381544;32;20298;-58
2022/11/25 06:16:46;;;;;;;0.30;0.30;;;;;;;4.63;86.89;95438.72;4382129;32;20361;-60
2022/11/25 06:19:12;;;;;;;0.10;0.10;;;;;;;4.56;88.02;95434.75;4368514;32;20281;-58
2022/11/25 06:21:39;;;;;;;0.40;0.40;;;;;;;4.36;88.56;95433.56;4336682;32;20334;-58
2022/11/25 06:24:08;;;;;;;0.30;0.30;;;;;;;4.49;88.67;95433.13;4353711;32;20366;-58
2022/11/25 06:26:35;;;;;;;0.47;0.47;;;;;;;4.18;89.21;95435.75;4373193;32;20422;-58
2022/11/25 06:29:01;;;;;;;0.20;0.20;;;;;;;4.51;88.66;95430.25;4367997;32;20272;-58
2022/11/25 06:31:27;;;;;;;0.30;0.30;;;;;;;4.71;87.47;95424.31;4361072;32;20268;-58
2022/11/25 06:33:53;;;;;;;0.50;0.50;;;;;;;4.81;86.92;95424.38;4342397;32;20281;-58
2022/11/25 06:36:31;;;;;;;0.10;0.10;;;;;;;4.67;87.27;95421.41;4336937;32;20272;-58
2022/11/25 06:38:58;;;;;;;0.27;0.27;;;;;;;4.33;88.11;95428.81;4335365;32;20319;-57
2022/11/25 06:41:27;;;;;;;0.23;0.23;;;;;;;4.10;90.12;95435.19;4377582;32;20326;-58
2022/11/25 06:43:55;;;;;;;0.20;0.20;;;;;;;4.23;89.76;95439.22;4377318;32;20281;-58
2022/11/25 06:46:22;;;;;;;0.20;0.20;;;;;;;4.39;89.03;95432.22;4388048;32;20281;-58
2022/11/25 06:48:47;;;;;;;0.10;0.10;;;;;;;4.46;88.73;95433.63;4362039;32;20280;-58
2022/11/25 06:51:15;;;;;;;0.30;0.30;;;;;;;4.64;88.11;95435.06;4384655;32;20280;-58
2022/11/25 06:53:42;;;;;;;0.93;0.90;;;;;;;4.60;87.66;95436.59;4384413;32;20193;-58
2022/11/25 06:56:36;;;;;;;0.80;0.80;;;;;;;4.62;87.57;95441.59;4354840;32;20383;-58
2022/11/25 06:59:03;;;;;;;0.53;0.53;;;;;;;4.40;88.60;95449.56;4333897;32;20327;-58
2022/11/25 07:01:33;;;;;;;0.03;0.03;;;;;;;4.34;87.94;95442.72;4367619;32;20331;-58
2022/11/25 07:04:11;;;;;;;6.43;1.83;;;;;;;4.30;89.10;95439.00;4365617;32;20309;-60
2022/11/25 07:06:37;;;;;;;0.73;0.67;;;;;;;5.34;100.00;95420.72;4363506;32;20340;-61
2022/11/25 07:09:05;;;;;;;1.53;0.70;;;;;;;5.93;100.00;95423.00;4334967;32;20362;-61
2022/11/25 07:11:33;;;;;;;0.67;0.67;;;;;;;6.65;100.00;95426.44;4376014;32;20288;-62
2022/11/25 07:14:03;;;;;;;0.27;0.27;;;;;;;6.79;100.00;95430.91;4357405;32;20343;-61
2022/11/25 07:16:29;;;;;;;0.20;0.20;;;;;;;6.95;95.34;95430.84;4367325;32;20302;-62
2022/11/25 07:19:07;;;;;;;0.47;0.47;;;;;;;7.13;94.55;95438.19;4355831;32;20328;-58
2022/11/25 07:21:35;;;;;;;0.27;0.27;;;;;;;7.21;91.87;95437.66;4366032;32;20272;-59
2022/11/25 07:24:06;;;;;;;0.20;0.20;;;;;;;6.91;79.99;95446.41;4336644;32;20297;-59
2022/11/25 07:26:36;;;;;;;0.43;0.43;;;;;;;6.55;79.63;95445.69;4355949;32;20295;-59
2022/11/25 07:29:08;;;;;;;0.10;0.07;;;;;;;5.78;81.61;95450.06;4355491;32;21727;-59
2022/11/25 07:31:37;;;;;;;0.33;0.33;;;;;;;5.63;82.16;95451.81;4325025;32;20426;-59
2022/11/25 07:34:13;;;;;;;0.00;0.00;;;;;;;5.50;83.07;95453.91;4347325;32;20362;-59
2022/11/25 07:36:40;;;;;;;0.00;0.00;;;;;;;5.48;83.24;95456.00;4368351;32;20330;-59
2022/11/25 07:39:10;;;;;;;0.30;0.30;;;;;;;5.41;83.42;95449.38;4368071;32;20434;-59
2022/11/25 07:41:38;;;;;;;0.23;0.23;;;;;;;5.35;83.96;95451.22;4370555;32;20318;-59
2022/11/25 07:44:07;;;;;;;0.20;0.20;;;;;;;5.40;84.04;95453.84;4374666;32;20383;-59
2022/11/25 07:46:37;;;;;;;2.10;0.90;;;;;;;5.18;83.86;95459.31;4349690;32;20289;-59
2022/11/25 07:49:07;;;;;;;0.40;0.40;;;;;;;5.33;84.06;95457.78;4374820;32;20314;-59
2022/11/25 07:51:37;;;;;;;0.23;0.23;;;;;;;5.24;84.06;95462.72;4360604;32;20285;-59
2022/11/25 07:54:08;;;;;;;0.40;0.40;;;;;;;5.22;84.61;95456.94;4372679;32;22694;-59
2022/11/25 07:56:37;;;;;;;0.40;0.40;;;;;;;5.34;84.86;95460.16;4365445;32;20363;-59
2022/11/25 07:59:12;;;;;;;0.30;0.30;;;;;;;5.13;85.32;95461.09;4329109;32;20316;-59
2022/11/25 08:01:40;;;;;;;0.20;0.20;;;;;;;5.24;85.01;95462.72;4354642;32;20292;-59
2022/11/25 08:04:15;;;;;;;0.20;0.20;;;;;;;5.49;83.91;95462.84;4381846;32;20289;-59
2022/11/25 08:06:43;;;;;;;0.30;0.30;;;;;;;5.33;84.45;95473.56;4363008;32;20294;-59
2022/11/25 08:09:18;;;;;;;0.10;0.10;;;;;;;5.32;84.22;95478.03;4357601;32;20326;-59
2022/11/25 08:11:45;;;;;;;0.40;0.40;;;;;;;5.42;83.94;95477.28;4357497;32;20288;-60
2022/11/25 08:14:15;;;;;;;0.43;0.43;;;;;;;5.50;83.36;95480.22;4359563;32;20324;-59
2022/11/25 08:16:42;;;;;;;0.50;0.50;;;;;;;5.47;83.79;95475.47;4367731;32;20277;-59
2022/11/25 08:19:12;;;;;;;0.67;0.67;;;;;;;5.16;83.76;95471.91;4357987;32;20285;-59
2022/11/25 08:21:39;;;;;;;0.40;0.40;;;;;;;5.13;84.31;95469.78;4363618;32;20302;-58
2022/11/25 08:24:06;;;;;;;0.57;0.57;;;;;;;5.08;85.10;95461.88;4366796;32;20291;-59
2022/11/25 08:26:36;;;;;;;0.20;0.20;;;;;;;5.15;85.60;95472.97;4361593;32;20289;-59
2022/11/25 08:29:03;;;;;;;0.10;0.10;;;;;;;5.01;85.76;95471.00;4333032;32;20235;-59
2022/11/25 08:31:41;;;;;;;0.30;0.30;;;;;;;5.08;85.60;95466.31;4374688;32;20350;-59
2022/11/25 08:34:14;;;;;;;0.57;0.57;;;;;;;5.11;85.62;95463.19;4372670;32;20368;-59
2022/11/25 08:36:40;;;;;;;0.87;0.77;;;;;;;5.12;84.92;95477.94;4373590;32;20304;-59
2022/11/25 08:39:07;;;;;;;0.30;0.30;;;;;;;5.42;84.65;95464.13;4376398;32;20325;-59
2022/11/25 08:41:36;;;;;;;0.27;0.27;;;;;;;5.51;84.34;95466.00;4363093;32;20312;-59
2022/11/25 08:44:07;;;;;;;0.20;0.20;;;;;;;5.51;83.91;95466.00;4368940;32;20273;-59
2022/11/25 08:46:36;;;;;;;0.30;0.30;;;;;;;5.60;84.05;95470.78;4343896;32;21559;-59
2022/11/25 08:49:07;;;;;;;0.27;0.27;;;;;;;5.76;83.71;95473.22;4377141;32;20301;-59
2022/11/25 08:51:36;;;;;;;2.40;0.37;;;;;;;5.95;83.29;95481.44;4377489;32;20299;-59
2022/11/25 08:54:06;;;;;;;0.30;0.30;;;;;;;6.10;82.61;95488.56;4370885;32;20292;-60
2022/11/25 08:56:33;;;;;;;0.47;0.43;;;;;;;6.27;81.70;95504.13;4378499;32;20300;-60
2022/11/25 08:59:01;;;;;;;0.40;0.40;;;;;;;6.23;82.28;95503.91;4366097;32;20367;-60
2022/11/25 09:01:29;;;;;;;0.23;0.23;;;;;;;6.57;80.61;95503.41;4331777;32;20340;-60
2022/11/25 09:03:57;;;;;;;0.30;0.30;;;;;;;6.73;79.56;95508.41;4367557;32;20353;-59
2022/11/25 09:06:27;;;;;;;0.77;0.77;;;;;;;6.38;80.53;95511.81;4315237;32;20323;-59
2022/11/25 09:09:08;;;;;;;1.20;0.60;;;;;;;6.28;81.45;95524.16;4371231;32;20345;-58
2022/11/25 09:11:34;;;;;;;0.63;0.63;;;;;;;6.44;80.23;95525.78;4373231;32;20378;-59
2022/11/25 09:14:03;;;;;;;5.73;1.50;;;;;;;6.27;80.98;95525.22;4371426;32;20269;-59
2022/11/25 09:16:30;;;;;;;0.27;0.27;;;;;;;6.36;80.65;95534.19;4365246;32;20285;-58
2022/11/25 09:18:58;;;;;;;1.50;0.73;;;;;;;6.53;80.25;95534.75;4355099;32;20289;-59
2022/11/25 09:21:27;;;;;;;0.77;0.77;;;;;;;6.46;81.36;95527.09;4356729;32;20353;-59
2022/11/25 09:23:54;;;;;;;0.53;0.53;;;;;;;6.61;79.90;95536.88;4366546;32;20348;-58
2022/11/25 09:26:35;;;;;;;0.67;0.47;;;;;;;6.58;79.34;95545.31;4386224;32;20337;-59
2022/11/25 09:29:02;;;;;;;0.30;0.30;;;;;;;6.59;79.18;95544.25;4359259;32;20295;-58
2022/11/25 09:31:31;;;;;;;2.97;1.20;;;;;;;6.78;79.36;95547.94;4355962;32;20281;-58
2022/11/25 09:33:59;;;;;;;0.50;0.50;;;;;;;6.74;79.68;95546.88;4377426;32;20337;-58
2022/11/25 09:36:25;;;;;;;0.60;0.60;;;;;;;6.79;78.89;95552.16;4369352;32;20310;-58
2022/11/25 09:38:51;;;;;;;0.43;0.40;;;;;;;6.73;80.11;95547.16;4384034;32;20285;-58
2022/11/25 09:47:49;;;;;;;0.30;0.30;;;;;;;6.82;80.69;95538.47;4358078;32;20298;-59
2022/11/25 09:50:36;;;;;;;0.40;0.40;;;;;;;6.95;80.61;95542.41;4371274;32;20280;-59
2022/11/25 09:53:38;;;;;;;0.33;0.33;;;;;;;7.01;80.89;95535.28;4359972;32;20297;-58
2022/11/25 09:56:13;;;;;;;1.07;0.93;;;;;;;7.06;79.71;95537.94;4373436;32;20406;-58
2022/11/25 09:58:46;;;;;;;0.57;0.20;;;;;;;6.83;81.15;95545.31;4371130;32;20355;-59
2022/11/25 10:01:17;;;;;;;1.37;0.57;;;;;;;6.96;81.15;95540.56;4373095;32;20351;-58
2022/11/25 10:04:04;;;;;;;0.97;0.97;;;;;;;7.07;80.26;95550.03;4370897;32;20339;-59
2022/11/25 10:06:56;;;;;;;8.17;0.60;;;;;;;7.08;80.87;95541.06;4361420;32;20285;-58
2022/11/25 10:09:26;;;;;;;1.33;0.77;;;;;;;7.02;80.57;95542.94;4375870;32;20289;-58
2022/11/25 10:12:04;;;;;;;0.20;0.20;;;;;;;7.12;80.63;95544.75;4389307;32;20277;-58
2022/11/25 10:14:52;;;;;;;0.40;0.40;;;;;;;7.40;79.90;95541.56;4353404;32;20288;-58
2022/11/25 10:17:42;;;;;;;2.00;1.00;;;;;;;7.43;79.38;95548.16;4372368;32;20387;-58
2022/11/25 10:20:40;;;;;;;0.73;0.73;;;;;;;7.36;80.67;95537.88;4371093;32;20363;-58
2022/11/25 10:23:33;;;;;;;0.20;0.20;;;;;;;7.57;78.16;95542.03;4360563;32;20289;-58
2022/11/25 10:26:21;;;;;;;0.17;0.17;;;;;;;7.57;74.36;95543.91;4360264;32;20295;-58
2022/11/25 10:28:56;;;;;;;0.10;0.10;;;;;;;7.81;75.12;95544.09;4361223;32;20288;-59
2022/11/25 10:31:44;;;;;;;0.03;0.03;;;;;;;7.64;75.42;95549.69;4350019;32;20280;-58
2022/11/25 10:34:35;;;;;;;0.30;0.30;;;;;;;7.68;75.41;95550.75;4379253;32;20276;-57
2022/11/25 10:37:24;;;;;;;0.30;0.20;;;;;;;7.74;73.68;95548.84;4376597;32;20279;-58
2022/11/25 10:39:51;;;;;;;0.10;0.10;;;;;;;7.50;72.81;95546.81;4370766;32;20289;-57
2022/11/25 10:42:25;;;;;;;0.53;0.53;;;;;;;7.62;75.33;95557.09;4365193;32;20337;-57
2022/11/25 10:44:56;;;;;;;0.10;0.10;;;;;;;7.65;77.14;95559.19;4379193;32;20190;-58
2022/11/25 10:47:29;;;;;;;0.07;0.07;;;;;;;7.71;77.14;95555.47;4365791;32;20288;-58
2022/11/25 10:50:37;;;;;;;0.47;0.47;;;;;;;7.74;75.59;95552.28;4357619;32;20346;-58
2022/11/25 10:53:11;;;;;;;0.10;0.10;;;;;;;7.82;76.59;95554.38;4358339;32;20323;-58
2022/11/25 10:55:38;;;;;;;0.33;0.33;;;;;;;7.84;74.75;95554.12;4321705;32;20378;-58
2022/11/25 10:58:38;;;;;;;0.30;0.30;;;;;;;7.91;76.92;95544.03;4350882;32;20292;-58
2022/11/25 11:01:24;;;;;;;1.00;0.83;;;;;;;8.07;73.27;95548.22;4357861;32;20469;-58
2022/11/25 11:04:05;;;;;;;0.40;0.40;;;;;;;8.02;72.44;95550.06;4371032;32;20333;-57
2022/11/25 11:06:43;;;;;;;0.60;0.60;;;;;;;7.94;75.60;95544.28;4352117;32;20359;-58
2022/11/25 11:09:35;;;;;;;0.83;0.83;;;;;;;8.02;74.87;95545.59;4376577;32;20281;-58
2022/11/25 11:12:28;;;;;;;0.40;0.40;;;;;;;8.14;75.58;95540.75;4373414;32;20307;-58
2022/11/25 11:15:23;;;;;;;0.30;0.30;;;;;;;8.20;72.35;95530.97;4357252;32;20362;-58
2022/11/25 11:17:50;;;;;;;0.30;0.30;;;;;;;8.31;70.50;95529.06;4362007;32;20268;-58
2022/11/25 11:20:28;;;;;;;0.20;0.20;;;;;;;8.27;71.09;95536.75;4363155;32;20286;-58
2022/11/25 11:23:10;;;;;;;0.50;0.50;;;;;;;8.58;70.54;95545.28;4367345;32;20301;-58
2022/11/25 11:25:40;;;;;;;0.30;0.30;;;;;;;8.68;70.64;95539.16;4369905;32;20281;-58
2022/11/25 11:28:39;;;;;;;0.47;0.47;;;;;;;8.71;69.20;95534.13;4334048;32;20277;-58
2022/11/25 11:31:25;;;;;;;0.50;0.50;;;;;;;8.94;68.65;95529.94;4342201;32;20189;-57
2022/11/25 11:34:09;;;;;;;0.23;0.23;;;;;;;8.98;68.03;95535.47;4365011;32;20185;-58
2022/11/25 11:36:56;;;;;;;0.20;0.20;;;;;;;9.12;68.28;95536.44;4358861;32;20253;-57
2022/11/25 11:39:59;;;;;;;0.03;0.03;;;;;;;9.14;69.54;95531.66;4349390;32;20184;-57
2022/11/25 11:43:04;;;;;;;0.37;0.37;;;;;;;9.00;71.31;95530.69;4367372;32;20187;-57
2022/11/25 11:46:04;;;;;;;0.17;0.17;;;;;;;9.12;70.62;95531.16;4368059;32;20188;-57
2022/11/25 11:49:03;;;;;;;0.30;0.30;;;;;;;9.15;70.58;95533.22;4345901;32;20235;-58
2022/11/25 11:51:53;;;;;;;0.40;0.40;;;;;;;9.27;70.33;95528.34;4371196;32;20220;-57
2022/11/25 11:54:52;;;;;;;0.27;0.27;;;;;;;9.26;71.10;95524.91;4341314;32;20206;-58
2022/11/25 11:57:52;;;;;;;0.83;0.83;;;;;;;9.28;68.67;95529.94;4362597;32;20191;-57
2022/11/25 12:00:19;;;;;;;10.23;1.17;;;;;;;9.34;70.35;95520.88;4358106;32;20196;-58
2022/11/25 12:03:13;;;;;;;0.33;0.33;;;;;;;9.57;69.82;95521.94;4383840;32;20199;-58
2022/11/25 12:05:40;;;;;;;1.83;0.97;;;;;;;9.65;69.72;95514.19;4363104;32;20192;-58
2022/11/25 12:08:28;;;;;;;0.73;0.73;;;;;;;9.81;68.34;95520.06;4351260;32;20197;-58
2022/11/25 12:10:59;;;;;;;1.73;1.67;;;;;;;9.71;70.12;95516.78;4341363;32;20188;-57
2022/11/25 12:13:49;;;;;;;3.47;1.47;;;;;;;9.82;67.77;95507.62;4371836;32;20197;-58
2022/11/25 12:16:41;;;;;;;0.77;0.60;;;;;;;9.74;67.54;95514.34;4358305;32;20193;-58
2022/11/25 12:19:41;;;;;;;0.47;0.47;;;;;;;9.84;68.61;95510.78;4359731;32;20206;-58